createdAt,value
2018-03-02T00:00:38.050Z,19.56
2018-03-02T00:03:04.002Z,19.53
2018-03-02T00:05:29.955Z,19.50
2018-03-02T00:07:55.903Z,19.58
2018-03-02T00:10:21.841Z,19.52
2018-03-02T00:12:47.829Z,19.60
2018-03-02T00:15:13.761Z,19.55
2018-03-02T00:17:39.820Z,19.58
2018-03-02T00:20:05.791Z,19.59
2018-03-02T00:22:31.773Z,19.57
2018-03-02T00:24:57.739Z,19.58
2018-03-02T00:27:23.694Z,19.56
2018-03-02T00:29:49.630Z,19.57
2018-03-02T00:32:15.600Z,19.50
2018-03-02T00:34:41.551Z,19.46
2018-03-02T00:37:07.509Z,19.44
2018-03-02T00:39:33.462Z,19.52
2018-03-02T00:41:59.434Z,19.50
2018-03-02T00:44:25.432Z,19.47
2018-03-02T00:46:51.382Z,19.43
2018-03-02T00:49:17.331Z,19.49
2018-03-02T00:51:43.294Z,19.52
2018-03-02T00:54:09.239Z,19.44
2018-03-02T00:56:35.201Z,19.55
2018-03-02T00:59:01.162Z,19.39
2018-03-02T01:01:27.102Z,19.45
2018-03-02T01:03:53.089Z,19.47
2018-03-02T01:06:19.025Z,19.48
2018-03-02T01:08:44.977Z,19.41
2018-03-02T01:11:10.944Z,19.41
2018-03-02T01:13:36.995Z,19.51
2018-03-02T01:16:02.947Z,19.48
2018-03-02T01:18:28.902Z,19.46
2018-03-02T01:20:54.856Z,19.47
2018-03-02T01:23:20.808Z,19.38
2018-03-02T01:25:46.870Z,19.42
2018-03-02T01:28:12.826Z,19.36
2018-03-02T01:30:38.761Z,19.43
2018-03-02T01:33:04.702Z,19.41
2018-03-02T01:35:30.657Z,19.38
2018-03-02T01:37:56.605Z,19.36
2018-03-02T01:40:22.650Z,19.39
2018-03-02T01:42:48.596Z,19.39
2018-03-02T01:45:14.553Z,19.42
2018-03-02T01:47:40.510Z,19.37
2018-03-02T01:50:06.460Z,19.40
2018-03-02T01:52:32.452Z,19.34
2018-03-02T01:54:58.371Z,19.32
2018-03-02T01:57:24.328Z,19.41
2018-03-02T01:59:50.282Z,19.30
2018-03-02T02:02:16.234Z,19.35
2018-03-02T02:04:42.169Z,19.29
2018-03-02T02:07:08.133Z,19.34
2018-03-02T02:09:34.094Z,19.29
2018-03-02T02:12:00.039Z,19.35
2018-03-02T02:14:25.986Z,19.23
2018-03-02T02:16:51.922Z,19.26
2018-03-02T02:19:17.920Z,19.32
2018-03-02T02:21:43.882Z,19.25
2018-03-02T02:24:09.833Z,19.27
2018-03-02T02:26:35.798Z,19.24
2018-03-02T02:29:01.754Z,19.34
2018-03-02T02:31:27.714Z,19.38
2018-03-02T02:33:53.670Z,19.32
2018-03-02T02:36:19.693Z,19.34
2018-03-02T02:38:45.650Z,19.24
2018-03-02T02:41:11.601Z,19.26
2018-03-02T02:43:37.625Z,19.29
2018-03-02T02:46:03.573Z,19.26
2018-03-02T02:48:29.526Z,19.27
2018-03-02T02:50:55.474Z,19.19
2018-03-02T02:53:21.449Z,19.23
2018-03-02T02:55:47.411Z,19.19
2018-03-02T02:58:13.431Z,19.24
2018-03-02T03:00:39.394Z,19.17
2018-03-02T03:03:05.350Z,19.10
2018-03-02T03:05:31.334Z,19.16
2018-03-02T03:07:57.293Z,19.19
2018-03-02T03:10:23.241Z,19.20
2018-03-02T03:12:49.214Z,19.18
2018-03-02T03:15:15.160Z,19.14
2018-03-02T03:17:41.104Z,19.17
2018-03-02T03:20:07.058Z,19.12
2018-03-02T03:22:33.010Z,19.20
2018-03-02T03:24:58.957Z,19.19
2018-03-02T03:27:24.919Z,19.17
2018-03-02T03:29:50.863Z,19.10
2018-03-02T03:32:16.841Z,19.18
2018-03-02T03:34:42.867Z,19.17
2018-03-02T03:37:08.853Z,19.20
2018-03-02T03:39:34.803Z,19.27
2018-03-02T03:42:00.766Z,19.34
2018-03-02T03:44:26.730Z,19.49
2018-03-02T03:46:52.690Z,19.51
2018-03-02T03:49:18.643Z,19.64
2018-03-02T03:51:44.585Z,19.52
2018-03-02T03:54:10.551Z,19.56
2018-03-02T03:56:36.510Z,19.63
2018-03-02T03:59:02.453Z,19.66
2018-03-02T04:01:28.409Z,19.72
2018-03-02T04:03:54.360Z,19.66
2018-03-02T04:06:20.306Z,19.63
2018-03-02T04:08:46.261Z,19.72
2018-03-02T04:11:12.214Z,19.74
2018-03-02T04:13:38.157Z,19.75
2018-03-02T04:16:04.125Z,19.71
2018-03-02T04:18:30.117Z,19.72
2018-03-02T04:20:56.073Z,19.63
2018-03-02T04:23:22.041Z,19.65
2018-03-02T04:25:47.982Z,19.70
2018-03-02T04:28:13.933Z,19.70
2018-03-02T04:30:39.913Z,19.81
2018-03-02T04:33:05.895Z,19.72
2018-03-02T04:35:31.834Z,19.68
2018-03-02T04:37:57.893Z,19.85
2018-03-02T04:40:23.831Z,19.76
2018-03-02T04:42:49.786Z,19.63
2018-03-02T04:45:15.732Z,19.74
2018-03-02T04:47:41.680Z,19.76
2018-03-02T04:50:07.650Z,19.68
2018-03-02T04:52:33.596Z,19.72
2018-03-02T04:54:59.592Z,19.73
2018-03-02T04:57:25.546Z,19.64
2018-03-02T04:59:51.594Z,19.60
2018-03-02T05:02:17.570Z,19.66
2018-03-02T05:04:43.516Z,19.66
2018-03-02T05:07:09.599Z,19.73
2018-03-02T05:09:35.554Z,19.76
2018-03-02T05:12:01.516Z,19.78
2018-03-02T05:14:27.469Z,19.74
2018-03-02T05:16:53.426Z,19.75
2018-03-02T05:19:19.400Z,19.75
2018-03-02T05:21:45.390Z,19.78
2018-03-02T05:24:11.348Z,19.68
2018-03-02T05:26:37.290Z,19.75
2018-03-02T05:29:03.252Z,19.71
2018-03-02T05:31:29.376Z,19.74
2018-03-02T05:33:55.309Z,19.75
2018-03-02T05:36:21.247Z,19.76
2018-03-02T05:38:47.225Z,19.72
2018-03-02T05:41:13.173Z,19.84
2018-03-02T05:43:39.130Z,19.87
2018-03-02T05:46:05.086Z,19.75
2018-03-02T05:48:31.035Z,19.74
2018-03-02T05:50:56.976Z,19.77
2018-03-02T05:53:23.025Z,19.89
2018-03-02T05:55:48.986Z,19.85
2018-03-02T05:58:14.926Z,19.84
2018-03-02T06:00:40.862Z,19.89
2018-03-02T06:03:06.801Z,19.93
2018-03-02T06:05:32.747Z,19.76
2018-03-02T06:07:58.700Z,19.81
2018-03-02T06:10:24.642Z,19.88
2018-03-02T06:12:50.626Z,19.76
2018-03-02T06:15:16.570Z,19.86
2018-03-02T06:17:42.538Z,19.94
2018-03-02T06:20:08.474Z,19.85
2018-03-02T06:22:34.423Z,19.90
2018-03-02T06:25:00.362Z,19.76
2018-03-02T06:27:26.318Z,19.84
2018-03-02T06:29:52.260Z,19.81
2018-03-02T06:32:18.234Z,19.80
2018-03-02T06:34:44.188Z,19.97
2018-03-02T06:37:10.158Z,19.92
2018-03-02T06:39:36.109Z,19.99
2018-03-02T06:42:02.067Z,19.87
2018-03-02T06:44:28.014Z,19.99
2018-03-02T06:46:53.951Z,19.95
2018-03-02T06:49:19.916Z,19.90
2018-03-02T06:51:45.878Z,20.01
2018-03-02T06:54:11.941Z,19.97
2018-03-02T06:56:37.885Z,20.00
2018-03-02T06:59:03.859Z,19.95
2018-03-02T07:01:29.818Z,20.01
2018-03-02T07:03:55.774Z,19.85
2018-03-02T07:06:21.714Z,19.98
2018-03-02T07:08:47.741Z,19.86
2018-03-02T07:11:13.690Z,20.03
2018-03-02T07:13:39.630Z,20.11
2018-03-02T07:16:05.599Z,20.08
2018-03-02T07:18:31.577Z,20.01
2018-03-02T07:20:57.529Z,19.93
2018-03-02T07:23:23.483Z,19.98
2018-03-02T07:25:49.452Z,20.00
2018-03-02T07:28:15.402Z,20.01
2018-03-02T07:30:41.446Z,20.05
2018-03-02T07:33:07.398Z,20.01
2018-03-02T07:35:33.349Z,20.02
2018-03-02T07:37:59.390Z,20.02
2018-03-02T07:40:25.832Z,20.02
2018-03-02T07:42:51.929Z,20.03
2018-03-02T07:45:17.888Z,19.95
2018-03-02T07:47:43.853Z,20.02
2018-03-02T07:50:09.805Z,20.05
2018-03-02T07:52:35.799Z,19.97
2018-03-02T07:55:01.757Z,19.96
2018-03-02T07:57:27.804Z,20.05
2018-03-02T07:59:53.711Z,20.01
2018-03-02T08:02:19.668Z,19.98
2018-03-02T08:04:45.709Z,19.98
2018-03-02T08:07:11.737Z,20.05
2018-03-02T08:09:37.698Z,20.04
2018-03-02T08:12:03.649Z,20.02
2018-03-02T08:14:29.614Z,20.11
2018-03-02T08:16:55.561Z,20.05
2018-03-02T08:19:21.518Z,20.11
2018-03-02T08:21:47.511Z,20.08
2018-03-02T08:24:13.485Z,20.17
2018-03-02T08:26:39.439Z,20.03
2018-03-02T08:29:05.423Z,20.02
2018-03-02T08:31:31.361Z,20.11
2018-03-02T08:33:57.350Z,20.13
2018-03-02T08:36:23.325Z,20.19
2018-03-02T08:38:49.270Z,20.08
2018-03-02T08:41:15.223Z,20.17
2018-03-02T08:43:41.190Z,20.19
2018-03-02T08:46:07.146Z,20.11
2018-03-02T08:48:33.107Z,20.06
2018-03-02T08:50:59.098Z,20.09
2018-03-02T08:53:25.060Z,20.06
2018-03-02T08:55:51.010Z,20.02
2018-03-02T08:58:16.968Z,19.99
2018-03-02T09:00:43.011Z,20.17
2018-03-02T09:03:08.955Z,20.19
2018-03-02T09:05:34.966Z,20.08
2018-03-02T09:08:00.867Z,20.24
2018-03-02T09:10:26.812Z,20.20
2018-03-02T09:12:52.780Z,20.19
2018-03-02T09:15:18.750Z,20.25
2018-03-02T09:17:44.706Z,20.21
2018-03-02T09:20:10.685Z,20.19
2018-03-02T09:22:36.620Z,20.26
2018-03-02T09:25:02.601Z,20.23
2018-03-02T09:27:28.547Z,20.19
2018-03-02T09:29:54.498Z,20.13
2018-03-02T09:32:20.459Z,20.08
2018-03-02T09:34:46.398Z,20.13
2018-03-02T09:37:12.376Z,20.13
2018-03-02T09:39:38.319Z,20.17
2018-03-02T09:42:04.281Z,20.12
2018-03-02T09:44:30.231Z,20.20
2018-03-02T09:46:56.182Z,20.18
2018-03-02T09:49:22.144Z,20.23
2018-03-02T09:51:48.137Z,20.20
2018-03-02T09:54:14.085Z,20.24
2018-03-02T09:56:40.043Z,20.26
2018-03-02T09:59:05.984Z,20.29
2018-03-02T10:01:31.929Z,20.25
2018-03-02T10:03:57.934Z,20.26
2018-03-02T10:06:23.930Z,20.12
2018-03-02T10:08:49.903Z,20.18
2018-03-02T10:11:15.860Z,20.01
2018-03-02T10:13:41.822Z,20.09
2018-03-02T10:16:07.765Z,20.26
2018-03-02T10:18:33.745Z,20.26
2018-03-02T10:20:59.685Z,20.29
2018-03-02T10:23:25.667Z,20.18
2018-03-02T10:25:51.610Z,20.20
2018-03-02T10:28:17.563Z,20.26
2018-03-02T10:30:43.509Z,20.26
2018-03-02T10:33:09.451Z,20.20
2018-03-02T10:35:35.498Z,20.19
2018-03-02T10:38:01.493Z,20.24
2018-03-02T10:40:27.453Z,20.23
2018-03-02T10:42:53.413Z,20.25
2018-03-02T10:45:19.372Z,20.27
2018-03-02T10:47:45.329Z,20.23
2018-03-02T10:50:11.305Z,20.36
2018-03-02T10:52:37.263Z,20.28
2018-03-02T10:55:03.247Z,20.23
2018-03-02T10:57:29.239Z,20.32
2018-03-02T10:59:55.199Z,20.35
2018-03-02T11:02:21.165Z,20.34
2018-03-02T11:04:47.110Z,20.36
2018-03-02T11:07:13.047Z,20.39
2018-03-02T11:09:39.110Z,20.34
2018-03-02T11:12:05.050Z,20.38
2018-03-02T11:14:31.009Z,20.30
2018-03-02T11:16:56.957Z,20.39
2018-03-02T11:19:22.917Z,20.36
2018-03-02T11:21:48.886Z,20.40
2018-03-02T11:24:14.851Z,20.41
2018-03-02T11:26:40.825Z,20.39
2018-03-02T11:29:06.778Z,20.38
2018-03-02T11:31:32.750Z,20.38
2018-03-02T11:33:58.711Z,20.42
2018-03-02T11:36:24.706Z,20.43
2018-03-02T11:38:50.679Z,20.46
2018-03-02T11:41:16.616Z,20.46
2018-03-02T11:43:42.605Z,20.44
2018-03-02T11:46:08.567Z,20.45
2018-03-02T11:48:34.572Z,20.50
2018-03-02T11:51:00.522Z,20.42
2018-03-02T11:53:26.478Z,20.42
2018-03-02T11:55:52.454Z,20.46
2018-03-02T11:58:18.418Z,20.53
2018-03-02T12:00:44.382Z,20.51
2018-03-02T12:03:10.366Z,20.49
2018-03-02T12:05:36.311Z,20.47
2018-03-02T12:08:02.259Z,20.53
2018-03-02T12:10:28.305Z,20.38
2018-03-02T12:12:54.291Z,20.42
2018-03-02T12:15:20.246Z,20.48
2018-03-02T12:17:46.241Z,20.52
2018-03-02T12:20:12.201Z,20.52
2018-03-02T12:22:38.185Z,20.48
2018-03-02T12:25:04.142Z,20.49
2018-03-02T12:27:30.106Z,20.59
2018-03-02T12:29:56.070Z,20.54
2018-03-02T12:32:22.082Z,20.47
2018-03-02T12:34:48.030Z,20.45
2018-03-02T12:37:13.969Z,20.42
2018-03-02T12:39:40.057Z,20.44
2018-03-02T12:42:06.073Z,20.47
2018-03-02T12:44:32.063Z,20.53
2018-03-02T12:46:57.995Z,20.45
2018-03-02T12:49:23.957Z,20.49
2018-03-02T12:51:49.919Z,20.50
2018-03-02T12:54:15.863Z,20.45
2018-03-02T12:56:41.829Z,20.45
2018-03-02T12:59:07.773Z,20.32
2018-03-02T13:01:33.715Z,20.48
2018-03-02T13:03:59.662Z,20.48
2018-03-02T13:06:25.617Z,20.42
2018-03-02T13:08:51.670Z,20.49
2018-03-02T13:11:17.622Z,20.44
2018-03-02T13:13:43.591Z,20.43
2018-03-02T13:16:09.542Z,20.45
2018-03-02T13:18:35.521Z,20.46
2018-03-02T13:21:01.506Z,20.54
2018-03-02T13:23:27.527Z,20.49
2018-03-02T13:25:53.483Z,20.46
2018-03-02T13:28:19.782Z,20.55
2018-03-02T13:30:47.866Z,20.63
2018-03-02T13:33:13.799Z,20.69
2018-03-02T13:35:39.746Z,20.57
2018-03-02T13:38:05.713Z,20.58
2018-03-02T13:40:31.925Z,20.50
2018-03-02T13:42:57.871Z,20.50
2018-03-02T13:45:23.834Z,20.45
2018-03-02T13:47:49.783Z,20.45
2018-03-02T13:50:15.786Z,20.49
2018-03-02T13:52:41.746Z,20.54
2018-03-02T13:55:07.686Z,20.59
2018-03-02T13:57:33.687Z,20.57
2018-03-02T13:59:59.655Z,20.53
2018-03-02T14:02:25.591Z,20.54
2018-03-02T14:04:51.590Z,20.53
2018-03-02T14:07:17.613Z,20.55
2018-03-02T14:09:43.561Z,20.49
2018-03-02T14:12:09.527Z,20.43
2018-03-02T14:14:35.498Z,20.40
2018-03-02T14:17:01.455Z,20.37
2018-03-02T14:19:27.405Z,20.45
2018-03-02T14:21:53.356Z,20.34
2018-03-02T14:24:19.303Z,20.39
2018-03-02T14:26:45.251Z,20.44
2018-03-02T14:29:11.314Z,20.40
2018-03-02T14:31:37.257Z,20.47
2018-03-02T14:34:03.191Z,20.52
2018-03-02T14:36:29.147Z,20.51
2018-03-02T14:38:55.095Z,20.51
2018-03-02T14:41:21.046Z,20.56
2018-03-02T14:43:47.010Z,20.55
2018-03-02T14:46:12.967Z,20.49
2018-03-02T14:48:38.899Z,20.54
2018-03-02T14:51:04.877Z,20.50
2018-03-02T14:53:30.818Z,20.44
2018-03-02T14:55:56.769Z,20.43
2018-03-02T14:58:22.731Z,20.38
2018-03-02T15:00:48.694Z,20.44
2018-03-02T15:03:14.703Z,20.46
2018-03-02T15:05:40.662Z,20.52
2018-03-02T15:08:06.611Z,20.57
2018-03-02T15:10:32.570Z,20.49
2018-03-02T15:12:58.527Z,20.50
2018-03-02T15:15:24.481Z,20.55
2018-03-02T15:17:50.499Z,20.57
2018-03-02T15:20:16.410Z,20.50
2018-03-02T15:22:42.386Z,20.48
2018-03-02T15:25:08.338Z,20.54
2018-03-02T15:27:34.282Z,20.50
2018-03-02T15:30:00.256Z,20.47
2018-03-02T15:32:26.225Z,20.35
2018-03-02T15:34:52.189Z,20.47
2018-03-02T15:37:18.250Z,20.51
2018-03-02T15:39:44.240Z,20.57
2018-03-02T15:42:10.138Z,20.48
2018-03-02T15:44:36.115Z,20.51
2018-03-02T15:47:02.076Z,20.49
2018-03-02T15:49:28.070Z,20.41
2018-03-02T15:51:54.018Z,20.42
2018-03-02T15:54:19.995Z,20.40
2018-03-02T15:56:45.937Z,20.50
2018-03-02T15:59:11.895Z,20.47
2018-03-02T16:01:37.836Z,20.37
2018-03-02T16:04:03.882Z,20.34
2018-03-02T16:06:29.894Z,20.34
2018-03-02T16:08:55.798Z,20.32
2018-03-02T16:11:21.738Z,20.32
2018-03-02T16:13:47.733Z,20.30
2018-03-02T16:16:13.684Z,20.26
2018-03-02T16:18:39.655Z,20.25
2018-03-02T16:21:05.643Z,20.24
2018-03-02T16:23:31.582Z,20.21
2018-03-02T16:25:57.546Z,20.33
2018-03-02T16:28:23.496Z,20.32
2018-03-02T16:30:49.474Z,20.47
2018-03-02T16:33:15.426Z,20.40
2018-03-02T16:35:41.377Z,20.41
2018-03-02T16:38:07.329Z,20.41
2018-03-02T16:40:33.277Z,20.41
2018-03-02T16:42:59.234Z,20.45
2018-03-02T16:45:25.199Z,20.48
2018-03-02T16:47:51.164Z,20.40
2018-03-02T16:50:17.105Z,20.45
2018-03-02T16:52:43.054Z,20.30
2018-03-02T16:55:09.008Z,20.13
2018-03-02T16:57:34.978Z,20.38
2018-03-02T17:00:00.918Z,20.33
2018-03-02T17:02:26.877Z,20.29
2018-03-02T17:04:52.817Z,20.18
2018-03-02T17:07:18.797Z,20.29
2018-03-02T17:09:44.738Z,20.45
2018-03-02T17:12:10.786Z,20.47
2018-03-02T17:14:36.718Z,20.40
2018-03-02T17:17:02.691Z,20.47
2018-03-02T17:19:28.770Z,20.46
2018-03-02T17:21:54.719Z,20.37
2018-03-02T17:24:20.726Z,20.35
2018-03-02T17:26:46.674Z,20.34
2018-03-02T17:29:12.658Z,20.30
2018-03-02T17:31:38.630Z,20.27
2018-03-02T17:34:04.606Z,20.30
2018-03-02T17:36:30.590Z,20.34
2018-03-02T17:38:56.574Z,20.27
2018-03-02T17:41:22.542Z,20.23
2018-03-02T17:43:48.486Z,20.22
2018-03-02T17:46:14.439Z,20.26
2018-03-02T17:48:40.389Z,20.26
2018-03-02T17:51:06.369Z,20.28
2018-03-02T17:53:32.306Z,20.39
2018-03-02T17:55:58.248Z,20.36
2018-03-02T17:58:24.210Z,20.39
2018-03-02T18:00:51.239Z,20.54
2018-03-02T18:03:17.171Z,20.32
2018-03-02T18:05:43.123Z,20.27
2018-03-02T18:08:09.094Z,20.27
2018-03-02T18:10:35.046Z,20.26
2018-03-02T18:13:01.019Z,20.26
2018-03-02T18:15:26.978Z,20.22
2018-03-02T18:17:52.958Z,20.24
2018-03-02T18:20:18.900Z,20.27
2018-03-02T18:22:44.859Z,20.21
2018-03-02T18:25:10.805Z,20.31
2018-03-02T18:27:36.778Z,20.13
2018-03-02T18:30:02.727Z,20.14
2018-03-02T18:32:28.699Z,20.18
2018-03-02T18:34:54.676Z,20.10
2018-03-02T18:37:20.643Z,20.09
2018-03-02T18:39:46.590Z,20.11
2018-03-02T18:42:12.536Z,20.13
2018-03-02T18:44:38.485Z,20.05
2018-03-02T18:47:04.457Z,20.15
2018-03-02T18:49:30.399Z,20.13
2018-03-02T18:51:56.356Z,20.13
2018-03-02T18:54:22.306Z,20.11
2018-03-02T18:56:48.259Z,20.06
2018-03-02T18:59:14.228Z,20.14
2018-03-02T19:01:40.178Z,20.11
2018-03-02T19:04:06.138Z,20.05
2018-03-02T19:06:32.142Z,20.08
2018-03-02T19:08:58.079Z,20.09
2018-03-02T19:11:24.046Z,20.08
2018-03-02T19:13:50.098Z,20.10
2018-03-02T19:16:16.092Z,20.08
2018-03-02T19:18:42.059Z,20.05
2018-03-02T19:21:08.023Z,20.13
2018-03-02T19:23:33.994Z,20.20
2018-03-02T19:25:59.945Z,20.12
2018-03-02T19:28:26.003Z,20.18
2018-03-02T19:30:51.965Z,20.12
2018-03-02T19:33:17.938Z,20.06
2018-03-02T19:35:43.986Z,20.12
2018-03-02T19:38:10.298Z,20.10
2018-03-02T19:40:36.340Z,20.00
2018-03-02T19:43:02.512Z,20.16
2018-03-02T19:45:28.698Z,20.28
2018-03-02T19:47:54.706Z,20.34
2018-03-02T19:50:20.903Z,20.29
2018-03-02T19:52:46.917Z,20.27
2018-03-02T19:55:13.106Z,20.13
2018-03-02T19:57:39.169Z,20.11
2018-03-02T20:00:05.122Z,20.19
2018-03-02T20:02:31.354Z,20.12
2018-03-02T20:04:57.383Z,20.16
2018-03-02T20:07:23.646Z,20.22
2018-03-02T20:09:49.745Z,20.19
2018-03-02T20:12:15.721Z,20.14
2018-03-02T20:14:41.690Z,20.07
2018-03-02T20:17:07.938Z,20.15
2018-03-02T20:19:34.186Z,20.12
2018-03-02T20:22:01.441Z,20.06
2018-03-02T20:24:27.520Z,20.05
2018-03-02T20:26:53.688Z,20.01
2018-03-02T20:29:19.675Z,19.98
2018-03-02T20:31:45.877Z,20.17
2018-03-02T20:34:11.858Z,20.25
2018-03-02T20:36:37.798Z,20.17
2018-03-02T20:39:03.780Z,20.22
2018-03-02T20:41:29.726Z,20.24
2018-03-02T20:43:55.723Z,20.24
2018-03-02T20:46:21.702Z,20.28
2018-03-02T20:48:47.661Z,20.31
2018-03-02T20:51:13.692Z,20.30
2018-03-02T20:53:39.638Z,20.24
2018-03-02T20:56:05.601Z,20.19
2018-03-02T20:58:31.554Z,20.18
2018-03-02T21:00:57.778Z,20.21
2018-03-02T21:03:23.737Z,20.19
2018-03-02T21:05:49.686Z,20.27
2018-03-02T21:08:15.654Z,20.23
2018-03-02T21:10:41.612Z,20.20
2018-03-02T21:13:07.554Z,20.21
2018-03-02T21:15:33.508Z,20.16
2018-03-02T21:17:59.464Z,20.18
2018-03-02T21:20:25.425Z,20.13
2018-03-02T21:22:51.396Z,20.12
2018-03-02T21:25:17.366Z,20.04
2018-03-02T21:27:43.462Z,20.03
2018-03-02T21:30:09.417Z,20.03
2018-03-02T21:32:35.372Z,19.88
2018-03-02T21:35:01.330Z,19.95
2018-03-02T21:37:27.281Z,19.99
2018-03-02T21:42:25.022Z,20.04
2018-03-02T21:44:50.975Z,19.97
2018-03-02T21:47:16.959Z,19.95
2018-03-02T21:49:42.937Z,19.93
2018-03-02T21:52:08.934Z,19.87
2018-03-02T21:54:34.922Z,19.85
2018-03-02T21:57:00.909Z,19.82
2018-03-02T21:59:26.894Z,19.96
2018-03-02T22:01:52.858Z,19.89
2018-03-02T22:04:18.809Z,19.82
2018-03-02T22:06:44.770Z,19.86
2018-03-02T22:09:10.718Z,19.80
2018-03-02T22:11:36.686Z,19.91
2018-03-02T22:14:02.666Z,19.79
2018-03-02T22:16:28.614Z,19.86
2018-03-02T22:18:54.562Z,19.81
2018-03-02T22:21:20.529Z,19.76
2018-03-02T22:23:46.478Z,19.80
2018-03-02T22:26:12.474Z,19.79
2018-03-02T22:28:38.429Z,19.76
2018-03-02T22:31:04.434Z,19.75
2018-03-02T22:33:30.386Z,19.78
2018-03-02T22:35:56.332Z,19.72
2018-03-02T22:38:22.277Z,19.83
2018-03-02T22:40:48.230Z,19.72
2018-03-02T22:43:14.210Z,19.73
2018-03-02T22:45:40.270Z,19.64
2018-03-02T22:48:06.233Z,19.73
2018-03-02T22:50:32.187Z,19.73
2018-03-02T22:52:58.270Z,19.73
2018-03-02T22:55:24.217Z,19.68
2018-03-02T22:57:50.159Z,19.65
2018-03-02T23:00:16.152Z,19.68
2018-03-02T23:02:42.097Z,19.66
2018-03-02T23:05:08.031Z,19.73
2018-03-02T23:07:34.051Z,19.71
2018-03-02T23:09:59.997Z,19.69
2018-03-02T23:12:25.939Z,19.65
2018-03-02T23:14:51.977Z,19.67
2018-03-02T23:17:18.037Z,19.69
2018-03-02T23:19:44.000Z,19.58
2018-03-02T23:22:09.953Z,19.55
2018-03-02T23:24:35.944Z,19.61
2018-03-02T23:27:01.878Z,19.58
2018-03-02T23:29:27.852Z,19.60
2018-03-02T23:31:53.795Z,19.63
2018-03-02T23:34:19.726Z,19.59
2018-03-02T23:36:45.720Z,19.66
2018-03-02T23:39:11.657Z,19.53
2018-03-02T23:41:37.627Z,19.56
2018-03-02T23:44:03.555Z,19.58
2018-03-02T23:46:29.501Z,19.64
2018-03-02T23:48:55.484Z,19.55
2018-03-02T23:51:21.425Z,19.59
2018-03-02T23:53:47.370Z,19.62
2018-03-02T23:56:13.318Z,19.63
2018-03-02T23:58:39.261Z,19.57
